<?xml version="1.0" encoding="UTF-8" standalone="no" ?>
<gpx xmlns="http://www.topografix.com/GPX/1/1" xmlns:xsi="http://www.w3.org/2001/XMLSchema-instance" xsi:schemaLocation="http://www.topografix.com/GPX/1/1 http://www.topografix.com/GPX/1/1/gpx.xsd" version="1.1" creator="VisuGPX - https://www.visugpx.com">
  <metadata>
    <name>Cantal</name>
  </metadata>
  <trk>
    <name><![CDATA[Vous suivez Aspre (Cantal)]]></name>
    <extensions>
      <line xmlns="http://www.topografix.com/GPX/gpx_style/0/2">
        <color>0000FF</color>
        <width>4</width>
      </line>
    </extensions>
    <trkseg>
      <trkpt lat="45.11561" lon="2.6289">
        <ele>1274</ele>
        <time>2020-09-14T14:34:23Z</time>
      </trkpt>
      <trkpt lat="45.11565" lon="2.62901">
        <ele>1274</ele>
        <time>2020-09-14T14:34:34Z</time>
      </trkpt>
      <trkpt lat="45.11568" lon="2.62912">
        <ele>1274</ele>
        <time>2020-09-14T14:34:49Z</time>
      </trkpt>
      <trkpt lat="45.11567" lon="2.62924">
        <ele>1275</ele>
        <time>2020-09-14T14:35:09Z</time>
      </trkpt>
      <trkpt lat="45.11565" lon="2.62937">
        <ele>1278</ele>
        <time>2020-09-14T14:35:34Z</time>
      </trkpt>
      <trkpt lat="45.11573" lon="2.62942">
        <ele>1280</ele>
        <time>2020-09-14T14:35:47Z</time>
      </trkpt>
      <trkpt lat="45.11577" lon="2.62953">
        <ele>1281</ele>
        <time>2020-09-14T14:35:58Z</time>
      </trkpt>
      <trkpt lat="45.11582" lon="2.62963">
        <ele>1282</ele>
        <time>2020-09-14T14:36:08Z</time>
      </trkpt>
      <trkpt lat="45.11588" lon="2.62972">
        <ele>1281</ele>
        <time>2020-09-14T14:36:18Z</time>
      </trkpt>
      <trkpt lat="45.11591" lon="2.62983">
        <ele>1282</ele>
        <time>2020-09-14T14:36:26Z</time>
      </trkpt>
      <trkpt lat="45.11596" lon="2.62993">
        <ele>1282</ele>
        <time>2020-09-14T14:36:34Z</time>
      </trkpt>
      <trkpt lat="45.11598" lon="2.63006">
        <ele>1281</ele>
        <time>2020-09-14T14:36:44Z</time>
      </trkpt>
      <trkpt lat="45.11599" lon="2.63018">
        <ele>1284</ele>
        <time>2020-09-14T14:36:54Z</time>
      </trkpt>
      <trkpt lat="45.11604" lon="2.63028">
        <ele>1284</ele>
        <time>2020-09-14T14:37:01Z</time>
      </trkpt>
      <trkpt lat="45.11609" lon="2.63038">
        <ele>1288</ele>
        <time>2020-09-14T14:37:11Z</time>
      </trkpt>
      <trkpt lat="45.11605" lon="2.63047">
        <ele>1290</ele>
        <time>2020-09-14T14:37:17Z</time>
      </trkpt>
      <trkpt lat="45.11605" lon="2.63059">
        <ele>1290</ele>
        <time>2020-09-14T14:37:25Z</time>
      </trkpt>
      <trkpt lat="45.11606" lon="2.63063">
        <ele>1291</ele>
        <time>2020-09-14T14:37:30Z</time>
      </trkpt>
      <trkpt lat="45.11606" lon="2.63063">
        <ele>1291</ele>
        <time>2020-09-14T14:37:31Z</time>
      </trkpt>
      <trkpt lat="45.11609" lon="2.63072">
        <ele>1299</ele>
        <time>2020-09-14T14:38:22Z</time>
      </trkpt>
      <trkpt lat="45.11608" lon="2.63084">
        <ele>1299</ele>
        <time>2020-09-14T14:38:35Z</time>
      </trkpt>
      <trkpt lat="45.11614" lon="2.63094">
        <ele>1300</ele>
        <time>2020-09-14T14:38:42Z</time>
      </trkpt>
      <trkpt lat="45.11613" lon="2.63106">
        <ele>1303</ele>
        <time>2020-09-14T14:38:58Z</time>
      </trkpt>
      <trkpt lat="45.11619" lon="2.63113">
        <ele>1304</ele>
        <time>2020-09-14T14:39:12Z</time>
      </trkpt>
      <trkpt lat="45.11622" lon="2.63124">
        <ele>1305</ele>
        <time>2020-09-14T14:39:26Z</time>
      </trkpt>
      <trkpt lat="45.11618" lon="2.63136">
        <ele>1306</ele>
        <time>2020-09-14T14:39:37Z</time>
      </trkpt>
      <trkpt lat="45.1161" lon="2.63141">
        <ele>1307</ele>
        <time>2020-09-14T14:39:45Z</time>
      </trkpt>
      <trkpt lat="45.11603" lon="2.63145">
        <ele>1307</ele>
        <time>2020-09-14T14:39:58Z</time>
      </trkpt>
      <trkpt lat="45.11603" lon="2.63157">
        <ele>1309</ele>
        <time>2020-09-14T14:40:11Z</time>
      </trkpt>
      <trkpt lat="45.11599" lon="2.63168">
        <ele>1310</ele>
        <time>2020-09-14T14:40:22Z</time>
      </trkpt>
      <trkpt lat="45.11598" lon="2.6318">
        <ele>1313</ele>
        <time>2020-09-14T14:40:31Z</time>
      </trkpt>
      <trkpt lat="45.11599" lon="2.63192">
        <ele>1314</ele>
        <time>2020-09-14T14:40:43Z</time>
      </trkpt>
      <trkpt lat="45.11599" lon="2.63192">
        <ele>1314</ele>
        <time>2020-09-14T14:40:43Z</time>
      </trkpt>
      <trkpt lat="45.11599" lon="2.63194">
        <ele>1316</ele>
        <time>2020-09-14T14:41:17Z</time>
      </trkpt>
      <trkpt lat="45.11599" lon="2.63206">
        <ele>1318</ele>
        <time>2020-09-14T14:41:36Z</time>
      </trkpt>
      <trkpt lat="45.11598" lon="2.63218">
        <ele>1320</ele>
        <time>2020-09-14T14:41:45Z</time>
      </trkpt>
      <trkpt lat="45.11595" lon="2.63229">
        <ele>1323</ele>
        <time>2020-09-14T14:41:59Z</time>
      </trkpt>
      <trkpt lat="45.11588" lon="2.63236">
        <ele>1323</ele>
        <time>2020-09-14T14:42:06Z</time>
      </trkpt>
      <trkpt lat="45.11583" lon="2.63247">
        <ele>1321</ele>
        <time>2020-09-14T14:42:18Z</time>
      </trkpt>
      <trkpt lat="45.11591" lon="2.63252">
        <ele>1320</ele>
        <time>2020-09-14T14:42:32Z</time>
      </trkpt>
      <trkpt lat="45.11599" lon="2.63256">
        <ele>1324</ele>
        <time>2020-09-14T14:42:46Z</time>
      </trkpt>
      <trkpt lat="45.11605" lon="2.63265">
        <ele>1325</ele>
        <time>2020-09-14T14:43:00Z</time>
      </trkpt>
      <trkpt lat="45.1161" lon="2.63274">
        <ele>1326</ele>
        <time>2020-09-14T14:43:15Z</time>
      </trkpt>
      <trkpt lat="45.11612" lon="2.63285">
        <ele>1327</ele>
        <time>2020-09-14T14:43:25Z</time>
      </trkpt>
      <trkpt lat="45.11619" lon="2.63293">
        <ele>1325</ele>
        <time>2020-09-14T14:43:39Z</time>
      </trkpt>
      <trkpt lat="45.11619" lon="2.63293">
        <ele>1325</ele>
        <time>2020-09-14T14:43:39Z</time>
      </trkpt>
      <trkpt lat="45.11617" lon="2.63293">
        <ele>1326</ele>
        <time>2020-09-14T14:44:04Z</time>
      </trkpt>
      <trkpt lat="45.11614" lon="2.63304">
        <ele>1328</ele>
        <time>2020-09-14T14:44:18Z</time>
      </trkpt>
      <trkpt lat="45.1161" lon="2.63315">
        <ele>1329</ele>
        <time>2020-09-14T14:44:29Z</time>
      </trkpt>
      <trkpt lat="45.11607" lon="2.63326">
        <ele>1331</ele>
        <time>2020-09-14T14:44:41Z</time>
      </trkpt>
      <trkpt lat="45.11602" lon="2.63336">
        <ele>1333</ele>
        <time>2020-09-14T14:44:52Z</time>
      </trkpt>
      <trkpt lat="45.11602" lon="2.63349">
        <ele>1334</ele>
        <time>2020-09-14T14:45:06Z</time>
      </trkpt>
      <trkpt lat="45.11605" lon="2.63361">
        <ele>1334</ele>
        <time>2020-09-14T14:45:21Z</time>
      </trkpt>
      <trkpt lat="45.11609" lon="2.63371">
        <ele>1336</ele>
        <time>2020-09-14T14:45:35Z</time>
      </trkpt>
      <trkpt lat="45.11609" lon="2.63383">
        <ele>1339</ele>
        <time>2020-09-14T14:45:52Z</time>
      </trkpt>
      <trkpt lat="45.11614" lon="2.63393">
        <ele>1342</ele>
        <time>2020-09-14T14:46:11Z</time>
      </trkpt>
      <trkpt lat="45.11616" lon="2.63405">
        <ele>1344</ele>
        <time>2020-09-14T14:46:32Z</time>
      </trkpt>
      <trkpt lat="45.11617" lon="2.63416">
        <ele>1343</ele>
        <time>2020-09-14T14:46:47Z</time>
      </trkpt>
      <trkpt lat="45.11617" lon="2.63416">
        <ele>1343</ele>
        <time>2020-09-14T14:46:47Z</time>
      </trkpt>
      <trkpt lat="45.1162" lon="2.63418">
        <ele>1347</ele>
        <time>2020-09-14T14:53:44Z</time>
      </trkpt>
      <trkpt lat="45.11628" lon="2.63424">
        <ele>1350</ele>
        <time>2020-09-14T14:54:06Z</time>
      </trkpt>
      <trkpt lat="45.11635" lon="2.63429">
        <ele>1352</ele>
        <time>2020-09-14T14:54:23Z</time>
      </trkpt>
      <trkpt lat="45.11639" lon="2.6344">
        <ele>1357</ele>
        <time>2020-09-14T14:54:56Z</time>
      </trkpt>
      <trkpt lat="45.11645" lon="2.63447">
        <ele>1360</ele>
        <time>2020-09-14T14:55:31Z</time>
      </trkpt>
      <trkpt lat="45.11651" lon="2.63456">
        <ele>1364</ele>
        <time>2020-09-14T14:56:10Z</time>
      </trkpt>
      <trkpt lat="45.11659" lon="2.63462">
        <ele>1366</ele>
        <time>2020-09-14T14:56:37Z</time>
      </trkpt>
      <trkpt lat="45.11664" lon="2.63472">
        <ele>1368</ele>
        <time>2020-09-14T14:57:03Z</time>
      </trkpt>
      <trkpt lat="45.11666" lon="2.63484">
        <ele>1372</ele>
        <time>2020-09-14T14:57:28Z</time>
      </trkpt>
      <trkpt lat="45.11668" lon="2.63496">
        <ele>1374</ele>
        <time>2020-09-14T14:57:48Z</time>
      </trkpt>
      <trkpt lat="45.1166" lon="2.63501">
        <ele>1375</ele>
        <time>2020-09-14T14:58:01Z</time>
      </trkpt>
      <trkpt lat="45.11663" lon="2.63513">
        <ele>1378</ele>
        <time>2020-09-14T14:58:26Z</time>
      </trkpt>
      <trkpt lat="45.11669" lon="2.63522">
        <ele>1381</ele>
        <time>2020-09-14T14:58:41Z</time>
      </trkpt>
      <trkpt lat="45.11671" lon="2.63533">
        <ele>1383</ele>
        <time>2020-09-14T14:59:06Z</time>
      </trkpt>
      <trkpt lat="45.1167" lon="2.63535">
        <ele>1383</ele>
        <time>2020-09-14T14:59:07Z</time>
      </trkpt>
      <trkpt lat="45.1167" lon="2.63535">
        <ele>1383</ele>
        <time>2020-09-14T14:59:08Z</time>
      </trkpt>
    </trkseg>
  </trk>
</gpx>